Terminal Aerodrome Forecast
Issued by NWS Sterling, VA

Current Version | Previous Version | Graphics & Text | Print | Product List | Glossary On
Versions: 1 2 3 4 5 6 7 8 9 10 11 12 13 14 15 16 17
000
FTUS41 KLWX 210521
TAFMRB
TAF
KMRB 210521Z 2106/2206 24007KT P6SM BKN040 BKN200
     FM210800 25004KT P6SM BKN030 BKN200
     FM211800 21004KT P6SM BKN040 OVC050
     FM220000 VRB03KT P6SM BKN025 OVC050=

USA.gov is the U.S. government's official web portal to all federal, state and local government web resources and services.